Main page
METAR-TAF:

METAR-TAF

Airports :

Tripoli, Libya

Mitiga International Airport

latitude: 32-54N, longitude: 13-17E, elevation: 11 m

Current weather observation

The report was made 1 hour and 2 minutes ago, at 07:50 UTC
Wind 3 kt from variable directions
Temperature 19°C
Humidity 73%
Pressure 1017 hPa
Visibility: 8000 m

METAR: HLLM 300750Z VRB03KT 8000 NSC 19/14 Q1017

Time: 10:52 (08:52 UTC)

Forecast

The report was made 9 hours and 52 minutes ago, at 23:00 UTC
Forecast valid from 30 at 00 UTC to 30 at 24 UTC
Wind 2 kt from variable directions
Visibility: 8000 m
Becoming
from 30 at 04 UTC to 30 at 06 UTC
Wind 12 kt from the East/Northeast
Probability 30% :
Temporary
from 30 at 12 UTC to 30 at 22 UTC
Visibility: 5000 m
Broken clouds at a height of 7000 ft
thunderstorm, rain

TAF: HLLM 292300Z 3000/3024 VRB02KT 8000 NSC BECMG 3004/3006 06012KT PROB30 TEMPO 3012/3022 5000 TSRA FEWCB050 BKN070

Weather observations and forecasts of more than 4000 airports (METAR and TAF reports).

The available stations are represented by yellow and red dots on the map.

Hover mouse over dot to see the name of the station.

Then click to see weather observations and forecasts.

To change the map : click on the green buttons with a black cross to zoom in, on the green button with a dash to zoom out, or on the green arrows for adjacent maps.


METAR-TAF: